sensor_id;sensor_type;location;lat;lon;timestamp;temperature;humidity
68354;DHT22;55274;43.060;25.618;2022-09-12T05:33:34;24.30;66.80
68354;DHT22;55274;43.060;25.618;2022-09-12T05:36:01;24.70;62.90
68354;DHT22;55274;43.060;25.618;2022-09-12T05:38:27;24.40;63.90
68354;DHT22;55274;43.060;25.618;2022-09-12T05:41:05;24.00;63.30
68354;DHT22;55274;43.060;25.618;2022-09-12T05:43:35;23.70;66.10
68354;DHT22;55274;43.060;25.618;2022-09-12T05:46:04;24.00;64.20
68354;DHT22;55274;43.060;25.618;2022-09-12T05:48:30;24.50;61.60
68354;DHT22;55274;43.060;25.618;2022-09-12T05:51:10;24.90;60.20
68354;DHT22;55274;43.060;25.618;2022-09-12T05:53:37;25.50;59.40
68354;DHT22;55274;43.060;25.618;2022-09-12T05:56:11;26.00;57.30
68354;DHT22;55274;43.060;25.618;2022-09-12T05:58:40;26.20;57.30
68354;DHT22;55274;43.060;25.618;2022-09-12T06:01:08;26.10;55.50
68354;DHT22;55274;43.060;25.618;2022-09-12T06:03:47;26.50;55.20
68354;DHT22;55274;43.060;25.618;2022-09-12T06:06:15;27.00;55.00
68354;DHT22;55274;43.060;25.618;2022-09-12T06:08:45;27.00;53.40
68354;DHT22;55274;43.060;25.618;2022-09-12T06:11:15;26.70;53.10
68354;DHT22;55274;43.060;25.618;2022-09-12T06:13:41;26.60;53.40
68354;DHT22;55274;43.060;25.618;2022-09-12T06:16:15;27.10;52.80
68354;DHT22;55274;43.060;25.618;2022-09-12T06:18:45;27.10;52.80
68354;DHT22;55274;43.060;25.618;2022-09-12T06:21:11;27.10;51.70
68354;DHT22;55274;43.060;25.618;2022-09-12T06:23:38;26.50;52.50
68354;DHT22;55274;43.060;25.618;2022-09-12T06:26:05;26.60;52.30
68354;DHT22;55274;43.060;25.618;2022-09-12T06:28:33;26.80;52.80
68354;DHT22;55274;43.060;25.618;2022-09-12T06:31:04;26.50;52.50
68354;DHT22;55274;43.060;25.618;2022-09-12T06:33:35;26.40;52.20
68354;DHT22;55274;43.060;25.618;2022-09-12T06:36:12;26.30;51.80
68354;DHT22;55274;43.060;25.618;2022-09-12T06:38:39;26.00;53.00
68354;DHT22;55274;43.060;25.618;2022-09-12T06:41:09;25.90;52.80
68354;DHT22;55274;43.060;25.618;2022-09-12T06:43:37;25.90;53.00
68354;DHT22;55274;43.060;25.618;2022-09-12T06:46:03;26.00;53.40
68354;DHT22;55274;43.060;25.618;2022-09-12T06:48:29;26.00;53.50
68354;DHT22;55274;43.060;25.618;2022-09-12T06:53:22;25.20;54.30
68354;DHT22;55274;43.060;25.618;2022-09-12T06:55:54;25.40;54.50
68354;DHT22;55274;43.060;25.618;2022-09-12T06:58:20;25.20;54.50
68354;DHT22;55274;43.060;25.618;2022-09-12T07:00:46;25.10;55.40
68354;DHT22;55274;43.060;25.618;2022-09-12T07:03:12;25.10;55.30
68354;DHT22;55274;43.060;25.618;2022-09-12T07:05:37;25.30;54.90
68354;DHT22;55274;43.060;25.618;2022-09-12T07:08:03;25.10;55.00
68354;DHT22;55274;43.060;25.618;2022-09-12T07:10:29;24.70;55.50
68354;DHT22;55274;43.060;25.618;2022-09-12T07:12:55;24.80;56.00
68354;DHT22;55274;43.060;25.618;2022-09-12T07:15:21;24.70;55.80
68354;DHT22;55274;43.060;25.618;2022-09-12T07:17:47;24.50;56.00
68354;DHT22;55274;43.060;25.618;2022-09-12T07:20:12;24.40;55.50
68354;DHT22;55274;43.060;25.618;2022-09-12T07:22:38;24.30;56.70
68354;DHT22;55274;43.060;25.618;2022-09-12T07:25:04;24.30;55.70
68354;DHT22;55274;43.060;25.618;2022-09-12T07:27:30;24.40;56.00
68354;DHT22;55274;43.060;25.618;2022-09-12T07:29:56;24.70;56.10
68354;DHT22;55274;43.060;25.618;2022-09-12T07:32:21;24.70;56.00
68354;DHT22;55274;43.060;25.618;2022-09-12T07:34:47;24.80;54.50
68354;DHT22;55274;43.060;25.618;2022-09-12T07:37:14;24.80;54.30
68354;DHT22;55274;43.060;25.618;2022-09-12T07:39:40;24.80;52.90
68354;DHT22;55274;43.060;25.618;2022-09-12T07:42:06;24.60;54.40
68354;DHT22;55274;43.060;25.618;2022-09-12T07:44:32;24.70;55.10
68354;DHT22;55274;43.060;25.618;2022-09-12T07:46:58;24.80;53.80
68354;DHT22;55274;43.060;25.618;2022-09-12T07:49:23;25.10;52.50
68354;DHT22;55274;43.060;25.618;2022-09-12T07:51:49;25.30;51.50
68354;DHT22;55274;43.060;25.618;2022-09-12T07:54:15;25.70;51.90
68354;DHT22;55274;43.060;25.618;2022-09-12T07:56:42;25.90;49.70
68354;DHT22;55274;43.060;25.618;2022-09-12T07:59:08;26.10;50.70
68354;DHT22;55274;43.060;25.618;2022-09-12T08:01:33;26.40;48.70
68354;DHT22;55274;43.060;25.618;2022-09-12T08:03:59;26.70;48.30
68354;DHT22;55274;43.060;25.618;2022-09-12T08:06:27;26.90;47.40
68354;DHT22;55274;43.060;25.618;2022-09-12T08:08:56;27.20;46.80
68354;DHT22;55274;43.060;25.618;2022-09-12T08:11:23;27.20;46.30
68354;DHT22;55274;43.060;25.618;2022-09-12T08:13:50;27.30;46.90
68354;DHT22;55274;43.060;25.618;2022-09-12T08:16:18;27.80;45.70
68354;DHT22;55274;43.060;25.618;2022-09-12T08:18:46;27.60;45.00
68354;DHT22;55274;43.060;25.618;2022-09-12T08:21:23;27.90;45.00
68354;DHT22;55274;43.060;25.618;2022-09-12T08:24:04;27.90;44.30
68354;DHT22;55274;43.060;25.618;2022-09-12T08:26:31;27.50;44.60
68354;DHT22;55274;43.060;25.618;2022-09-12T08:28:57;27.90;44.70
68354;DHT22;55274;43.060;25.618;2022-09-12T08:31:25;28.10;44.30
68354;DHT22;55274;43.060;25.618;2022-09-12T08:33:54;28.00;44.20
68354;DHT22;55274;43.060;25.618;2022-09-12T08:36:25;27.80;44.30
68354;DHT22;55274;43.060;25.618;2022-09-12T08:39:04;27.70;45.00
68354;DHT22;55274;43.060;25.618;2022-09-12T08:41:44;28.30;44.80
68354;DHT22;55274;43.060;25.618;2022-09-12T08:52:46;28.60;43.10
68354;DHT22;55274;43.060;25.618;2022-09-12T08:57:51;28.40;43.00
68354;DHT22;55274;43.060;25.618;2022-09-12T09:00:18;28.80;42.50
68354;DHT22;55274;43.060;25.618;2022-09-12T09:08:33;28.10;43.60
68354;DHT22;55274;43.060;25.618;2022-09-12T09:13:50;28.50;41.10
68354;DHT22;55274;43.060;25.618;2022-09-12T09:16:43;28.90;40.40
68354;DHT22;55274;43.060;25.618;2022-09-12T09:19:15;29.20;41.10
68354;DHT22;55274;43.060;25.618;2022-09-12T09:21:53;29.20;40.90
68354;DHT22;55274;43.060;25.618;2022-09-12T09:24:37;29.40;40.60
68354;DHT22;55274;43.060;25.618;2022-09-12T09:29:53;29.40;40.30
68354;DHT22;55274;43.060;25.618;2022-09-12T09:32:28;29.50;40.10
68354;DHT22;55274;43.060;25.618;2022-09-12T09:34:55;29.20;41.10
68354;DHT22;55274;43.060;25.618;2022-09-12T09:37:39;29.30;40.80
68354;DHT22;55274;43.060;25.618;2022-09-12T09:40:26;29.20;40.90
68354;DHT22;55274;43.060;25.618;2022-09-12T09:43:20;29.50;40.40
68354;DHT22;55274;43.060;25.618;2022-09-12T09:45:48;29.30;40.10
68354;DHT22;55274;43.060;25.618;2022-09-12T09:50:42;29.70;39.20
68354;DHT22;55274;43.060;25.618;2022-09-12T09:56:00;29.40;39.70
68354;DHT22;55274;43.060;25.618;2022-09-12T09:58:33;29.50;39.10
68354;DHT22;55274;43.060;25.618;2022-09-12T10:01:03;28.10;40.60
68354;DHT22;55274;43.060;25.618;2022-09-12T10:03:37;28.40;40.90
68354;DHT22;55274;43.060;25.618;2022-09-12T10:08:48;29.10;39.30
68354;DHT22;55274;43.060;25.618;2022-09-12T10:16:33;28.20;41.00
68354;DHT22;55274;43.060;25.618;2022-09-12T10:19:02;28.00;41.20
68354;DHT22;55274;43.060;25.618;2022-09-12T10:21:40;28.40;41.60
68354;DHT22;55274;43.060;25.618;2022-09-12T10:24:32;28.80;39.60
68354;DHT22;55274;43.060;25.618;2022-09-12T10:32:28;28.80;39.70
68354;DHT22;55274;43.060;25.618;2022-09-12T10:34:59;29.10;38.80
68354;DHT22;55274;43.060;25.618;2022-09-12T10:37:33;29.70;37.90
68354;DHT22;55274;43.060;25.618;2022-09-12T10:40:02;29.40;38.10
68354;DHT22;55274;43.060;25.618;2022-09-12T10:42:49;28.70;39.40
68354;DHT22;55274;43.060;25.618;2022-09-12T10:45:33;28.20;41.20
68354;DHT22;55274;43.060;25.618;2022-09-12T10:48:31;28.30;41.50
68354;DHT22;55274;43.060;25.618;2022-09-12T10:50:58;28.90;40.60
68354;DHT22;55274;43.060;25.618;2022-09-12T10:53:39;28.80;40.10
68354;DHT22;55274;43.060;25.618;2022-09-12T11:03:48;27.80;40.60
68354;DHT22;55274;43.060;25.618;2022-09-12T11:06:23;28.40;41.10
68354;DHT22;55274;43.060;25.618;2022-09-12T11:09:09;28.60;38.30
68354;DHT22;55274;43.060;25.618;2022-09-12T11:14:52;28.80;39.70
68354;DHT22;55274;43.060;25.618;2022-09-12T11:17:35;28.80;38.70
68354;DHT22;55274;43.060;25.618;2022-09-12T11:33:51;28.30;40.90
68354;DHT22;55274;43.060;25.618;2022-09-12T11:39:23;27.00;42.00
68354;DHT22;55274;43.060;25.618;2022-09-12T11:41:59;27.00;43.20
68354;DHT22;55274;43.060;25.618;2022-09-12T11:44:32;27.50;41.60
68354;DHT22;55274;43.060;25.618;2022-09-12T11:47:00;27.70;41.60
68354;DHT22;55274;43.060;25.618;2022-09-12T11:49:49;27.80;41.50
68354;DHT22;55274;43.060;25.618;2022-09-12T11:52:25;27.90;40.80
68354;DHT22;55274;43.060;25.618;2022-09-12T11:55:04;27.80;41.00
68354;DHT22;55274;43.060;25.618;2022-09-12T11:57:38;27.90;40.90
68354;DHT22;55274;43.060;25.618;2022-09-12T12:00:20;28.10;40.40
68354;DHT22;55274;43.060;25.618;2022-09-12T12:05:56;27.90;39.60
68354;DHT22;55274;43.060;25.618;2022-09-12T12:08:25;27.70;41.20
68354;DHT22;55274;43.060;25.618;2022-09-12T12:10:59;28.00;41.60
68354;DHT22;55274;43.060;25.618;2022-09-12T12:16:28;27.60;40.00
68354;DHT22;55274;43.060;25.618;2022-09-12T12:18:56;27.20;40.10
68354;DHT22;55274;43.060;25.618;2022-09-12T12:21:41;27.00;41.00
68354;DHT22;55274;43.060;25.618;2022-09-12T12:34:40;27.00;43.00
68354;DHT22;55274;43.060;25.618;2022-09-12T12:47:52;27.10;42.20
68354;DHT22;55274;43.060;25.618;2022-09-12T12:52:51;26.80;41.30
68354;DHT22;55274;43.060;25.618;2022-09-12T12:55:44;27.00;41.80
68354;DHT22;55274;43.060;25.618;2022-09-12T12:58:38;26.70;41.10
68354;DHT22;55274;43.060;25.618;2022-09-12T13:03:35;26.20;42.50
68354;DHT22;55274;43.060;25.618;2022-09-12T13:06:04;26.40;43.00
68354;DHT22;55274;43.060;25.618;2022-09-12T13:08:38;26.40;43.10
68354;DHT22;55274;43.060;25.618;2022-09-12T13:11:12;26.40;42.80
68354;DHT22;55274;43.060;25.618;2022-09-12T13:16:10;26.90;41.20
68354;DHT22;55274;43.060;25.618;2022-09-12T13:18:45;27.00;42.00
68354;DHT22;55274;43.060;25.618;2022-09-12T13:21:19;27.10;41.30
68354;DHT22;55274;43.060;25.618;2022-09-12T13:24:03;26.80;41.20
68354;DHT22;55274;43.060;25.618;2022-09-12T13:26:34;26.70;42.00
68354;DHT22;55274;43.060;25.618;2022-09-12T13:29:16;26.40;42.00
68354;DHT22;55274;43.060;25.618;2022-09-12T13:31:50;26.20;42.70
68354;DHT22;55274;43.060;25.618;2022-09-12T13:34:29;26.20;42.60
68354;DHT22;55274;43.060;25.618;2022-09-12T13:42:52;26.30;42.80
68354;DHT22;55274;43.060;25.618;2022-09-12T13:45:36;26.50;42.90
68354;DHT22;55274;43.060;25.618;2022-09-12T13:48:05;26.50;43.10
68354;DHT22;55274;43.060;25.618;2022-09-12T13:50:49;26.60;42.30
68354;DHT22;55274;43.060;25.618;2022-09-12T13:53:18;26.40;42.30
68354;DHT22;55274;43.060;25.618;2022-09-12T13:55:48;26.20;43.10
68354;DHT22;55274;43.060;25.618;2022-09-12T13:58:25;26.20;43.40
68354;DHT22;55274;43.060;25.618;2022-09-12T14:03:41;26.20;43.40
68354;DHT22;55274;43.060;25.618;2022-09-12T14:06:26;26.10;43.10
68354;DHT22;55274;43.060;25.618;2022-09-12T14:08:53;26.10;43.90
68354;DHT22;55274;43.060;25.618;2022-09-12T14:11:28;26.10;44.30
68354;DHT22;55274;43.060;25.618;2022-09-12T14:13:55;26.00;44.30
68354;DHT22;55274;43.060;25.618;2022-09-12T14:16:22;25.90;44.20
68354;DHT22;55274;43.060;25.618;2022-09-12T14:18:49;25.80;44.60
68354;DHT22;55274;43.060;25.618;2022-09-12T14:23:56;25.60;45.30
68354;DHT22;55274;43.060;25.618;2022-09-12T14:26:26;25.50;45.80
68354;DHT22;55274;43.060;25.618;2022-09-12T14:28:52;25.50;45.70
68354;DHT22;55274;43.060;25.618;2022-09-12T14:31:23;25.50;46.10
68354;DHT22;55274;43.060;25.618;2022-09-12T14:33:54;25.50;46.20
68354;DHT22;55274;43.060;25.618;2022-09-12T14:36:29;25.40;46.10
68354;DHT22;55274;43.060;25.618;2022-09-12T14:39:03;25.30;46.60
68354;DHT22;55274;43.060;25.618;2022-09-12T14:41:37;25.30;47.00
68354;DHT22;55274;43.060;25.618;2022-09-12T14:44:13;25.30;46.70
68354;DHT22;55274;43.060;25.618;2022-09-12T14:46:40;25.30;46.80
68354;DHT22;55274;43.060;25.618;2022-09-12T14:59:39;25.10;47.20
68354;DHT22;55274;43.060;25.618;2022-09-12T15:12:31;25.00;48.00
68354;DHT22;55274;43.060;25.618;2022-09-12T15:15:11;25.00;48.40
68354;DHT22;55274;43.060;25.618;2022-09-12T15:17:37;25.10;48.30
68354;DHT22;55274;43.060;25.618;2022-09-12T15:20:03;25.10;48.60
68354;DHT22;55274;43.060;25.618;2022-09-12T15:22:31;25.10;47.60
68354;DHT22;55274;43.060;25.618;2022-09-12T15:24:59;25.10;47.70
68354;DHT22;55274;43.060;25.618;2022-09-12T15:27:25;25.00;47.50
68354;DHT22;55274;43.060;25.618;2022-09-12T15:29:54;24.90;47.20
68354;DHT22;55274;43.060;25.618;2022-09-12T15:32:27;24.80;46.80
68354;DHT22;55274;43.060;25.618;2022-09-12T15:34:53;24.80;47.30
68354;DHT22;55274;43.060;25.618;2022-09-12T15:37:21;24.70;47.70
68354;DHT22;55274;43.060;25.618;2022-09-12T15:39:47;24.50;47.60
68354;DHT22;55274;43.060;25.618;2022-09-12T15:42:14;24.50;48.10
68354;DHT22;55274;43.060;25.618;2022-09-12T15:44:40;24.40;47.90
68354;DHT22;55274;43.060;25.618;2022-09-12T15:47:10;24.30;48.20
68354;DHT22;55274;43.060;25.618;2022-09-12T15:49:36;24.30;48.60
68354;DHT22;55274;43.060;25.618;2022-09-12T15:52:02;24.20;48.70
68354;DHT22;55274;43.060;25.618;2022-09-12T15:54:28;24.10;48.90
68354;DHT22;55274;43.060;25.618;2022-09-12T15:56:54;24.10;49.10
68354;DHT22;55274;43.060;25.618;2022-09-12T15:59:20;24.10;49.10
68354;DHT22;55274;43.060;25.618;2022-09-12T16:01:46;24.00;49.40
68354;DHT22;55274;43.060;25.618;2022-09-12T16:04:23;24.00;49.50
68354;DHT22;55274;43.060;25.618;2022-09-12T16:06:50;23.90;49.90
68354;DHT22;55274;43.060;25.618;2022-09-12T16:09:16;23.80;49.90
68354;DHT22;55274;43.060;25.618;2022-09-12T16:11:42;23.80;50.60
68354;DHT22;55274;43.060;25.618;2022-09-12T16:14:12;23.80;51.10
68354;DHT22;55274;43.060;25.618;2022-09-12T16:16:38;23.70;51.20
68354;DHT22;55274;43.060;25.618;2022-09-12T16:19:04;23.60;51.60
68354;DHT22;55274;43.060;25.618;2022-09-12T16:21:29;23.60;51.60
68354;DHT22;55274;43.060;25.618;2022-09-12T16:23:56;23.50;51.40
68354;DHT22;55274;43.060;25.618;2022-09-12T16:26:22;23.50;51.70
68354;DHT22;55274;43.060;25.618;2022-09-12T16:28:54;23.40;51.70
68354;DHT22;55274;43.060;25.618;2022-09-12T16:31:20;23.30;51.90
68354;DHT22;55274;43.060;25.618;2022-09-12T16:33:47;23.30;52.10
68354;DHT22;55274;43.060;25.618;2022-09-12T16:36:15;23.20;51.30
68354;DHT22;55274;43.060;25.618;2022-09-12T16:38:52;23.10;52.00
68354;DHT22;55274;43.060;25.618;2022-09-12T16:41:19;23.00;51.90
68354;DHT22;55274;43.060;25.618;2022-09-12T16:43:46;23.00;52.40
68354;DHT22;55274;43.060;25.618;2022-09-12T16:46:14;23.00;52.40
68354;DHT22;55274;43.060;25.618;2022-09-12T16:48:42;22.90;52.80
68354;DHT22;55274;43.060;25.618;2022-09-12T16:51:14;22.80;54.10
68354;DHT22;55274;43.060;25.618;2022-09-12T16:53:40;22.70;53.40
68354;DHT22;55274;43.060;25.618;2022-09-12T16:56:07;22.60;54.60
68354;DHT22;55274;43.060;25.618;2022-09-12T16:58:38;22.50;54.30
68354;DHT22;55274;43.060;25.618;2022-09-12T17:01:07;22.50;54.60
68354;DHT22;55274;43.060;25.618;2022-09-12T17:03:34;22.40;54.60
68354;DHT22;55274;43.060;25.618;2022-09-12T17:06:08;22.30;55.00
68354;DHT22;55274;43.060;25.618;2022-09-12T17:08:37;22.30;54.90
68354;DHT22;55274;43.060;25.618;2022-09-12T17:11:06;22.20;54.10
68354;DHT22;55274;43.060;25.618;2022-09-12T17:13:32;22.20;54.30
68354;DHT22;55274;43.060;25.618;2022-09-12T17:15:59;22.20;54.20
68354;DHT22;55274;43.060;25.618;2022-09-12T17:18:25;22.20;54.00
68354;DHT22;55274;43.060;25.618;2022-09-12T17:20:51;22.10;54.60
68354;DHT22;55274;43.060;25.618;2022-09-12T17:23:17;22.10;54.80
68354;DHT22;55274;43.060;25.618;2022-09-12T17:25:47;22.00;56.40
68354;DHT22;55274;43.060;25.618;2022-09-12T17:28:14;21.90;55.80
68354;DHT22;55274;43.060;25.618;2022-09-12T17:30:39;21.80;56.20
68354;DHT22;55274;43.060;25.618;2022-09-12T17:33:06;21.70;58.20
68354;DHT22;55274;43.060;25.618;2022-09-12T17:35:36;21.60;57.70
68354;DHT22;55274;43.060;25.618;2022-09-12T17:38:04;21.50;58.40
68354;DHT22;55274;43.060;25.618;2022-09-12T17:40:30;21.40;59.60
68354;DHT22;55274;43.060;25.618;2022-09-12T17:42:59;21.40;59.40
68354;DHT22;55274;43.060;25.618;2022-09-12T17:45:26;21.30;59.70
68354;DHT22;55274;43.060;25.618;2022-09-12T17:47:53;21.10;60.90
68354;DHT22;55274;43.060;25.618;2022-09-12T17:50:19;21.00;61.10
68354;DHT22;55274;43.060;25.618;2022-09-12T17:52:45;20.90;60.70
68354;DHT22;55274;43.060;25.618;2022-09-12T17:55:12;20.90;59.70
68354;DHT22;55274;43.060;25.618;2022-09-12T17:57:40;20.90;59.50
68354;DHT22;55274;43.060;25.618;2022-09-12T18:00:07;20.90;59.40
68354;DHT22;55274;43.060;25.618;2022-09-12T18:02:33;20.80;59.20
68354;DHT22;55274;43.060;25.618;2022-09-12T18:04:59;20.80;59.10
68354;DHT22;55274;43.060;25.618;2022-09-12T18:07:29;20.70;59.60
68354;DHT22;55274;43.060;25.618;2022-09-12T18:09:55;20.70;60.10
68354;DHT22;55274;43.060;25.618;2022-09-12T18:12:22;20.60;60.30
68354;DHT22;55274;43.060;25.618;2022-09-12T18:14:48;20.50;60.00
68354;DHT22;55274;43.060;25.618;2022-09-12T18:17:14;20.50;60.70
68354;DHT22;55274;43.060;25.618;2022-09-12T18:19:40;20.40;60.50
68354;DHT22;55274;43.060;25.618;2022-09-12T18:22:06;20.40;60.70
68354;DHT22;55274;43.060;25.618;2022-09-12T18:24:32;20.40;60.50
68354;DHT22;55274;43.060;25.618;2022-09-12T18:26:58;20.40;61.20
68354;DHT22;55274;43.060;25.618;2022-09-12T18:29:26;20.30;61.40
68354;DHT22;55274;43.060;25.618;2022-09-12T18:31:53;20.30;61.60
68354;DHT22;55274;43.060;25.618;2022-09-12T18:34:19;20.30;62.30
68354;DHT22;55274;43.060;25.618;2022-09-12T18:36:46;20.20;63.00
68354;DHT22;55274;43.060;25.618;2022-09-12T18:39:13;20.10;64.10
68354;DHT22;55274;43.060;25.618;2022-09-12T18:41:39;20.00;64.90
68354;DHT22;55274;43.060;25.618;2022-09-12T18:44:06;19.90;65.80
68354;DHT22;55274;43.060;25.618;2022-09-12T18:46:33;19.80;65.50
68354;DHT22;55274;43.060;25.618;2022-09-12T18:49:00;19.70;66.80
68354;DHT22;55274;43.060;25.618;2022-09-12T18:51:28;19.70;66.50
68354;DHT22;55274;43.060;25.618;2022-09-12T18:54:10;19.60;67.80
68354;DHT22;55274;43.060;25.618;2022-09-12T18:56:37;19.60;68.70
68354;DHT22;55274;43.060;25.618;2022-09-12T18:59:05;19.40;69.20
68354;DHT22;55274;43.060;25.618;2022-09-12T19:01:34;19.30;69.80
68354;DHT22;55274;43.060;25.618;2022-09-12T19:04:00;19.20;70.50
68354;DHT22;55274;43.060;25.618;2022-09-12T19:06:34;19.20;70.40
68354;DHT22;55274;43.060;25.618;2022-09-12T19:09:01;19.10;70.40
68354;DHT22;55274;43.060;25.618;2022-09-12T19:11:27;19.00;71.80
68354;DHT22;55274;43.060;25.618;2022-09-12T19:13:54;18.90;71.80
68354;DHT22;55274;43.060;25.618;2022-09-12T19:16:22;18.80;72.00
68354;DHT22;55274;43.060;25.618;2022-09-12T19:18:49;18.70;72.30
68354;DHT22;55274;43.060;25.618;2022-09-12T19:21:26;18.70;73.20
68354;DHT22;55274;43.060;25.618;2022-09-12T19:23:56;18.60;73.30
68354;DHT22;55274;43.060;25.618;2022-09-12T19:26:23;18.60;73.40
68354;DHT22;55274;43.060;25.618;2022-09-12T19:28:49;18.50;73.70
68354;DHT22;55274;43.060;25.618;2022-09-12T19:31:16;18.40;74.20
68354;DHT22;55274;43.060;25.618;2022-09-12T19:33:43;18.30;74.50
68354;DHT22;55274;43.060;25.618;2022-09-12T19:36:11;18.20;74.90
68354;DHT22;55274;43.060;25.618;2022-09-12T19:38:38;18.10;75.30
68354;DHT22;55274;43.060;25.618;2022-09-12T19:41:06;18.10;75.80
68354;DHT22;55274;43.060;25.618;2022-09-12T19:43:32;18.10;76.50
68354;DHT22;55274;43.060;25.618;2022-09-12T19:45:59;18.00;76.80
68354;DHT22;55274;43.060;25.618;2022-09-12T19:48:26;18.00;76.40
68354;DHT22;55274;43.060;25.618;2022-09-12T19:50:52;18.10;76.30
68354;DHT22;55274;43.060;25.618;2022-09-12T19:53:18;18.00;75.70
68354;DHT22;55274;43.060;25.618;2022-09-12T19:55:44;18.10;75.60
68354;DHT22;55274;43.060;25.618;2022-09-12T19:58:11;18.10;75.50
68354;DHT22;55274;43.060;25.618;2022-09-12T20:00:37;18.10;74.80
68354;DHT22;55274;43.060;25.618;2022-09-12T20:03:04;18.10;74.30
68354;DHT22;55274;43.060;25.618;2022-09-12T20:05:31;18.20;74.40
68354;DHT22;55274;43.060;25.618;2022-09-12T20:07:58;18.20;74.10
68354;DHT22;55274;43.060;25.618;2022-09-12T20:10:24;18.30;74.60
68354;DHT22;55274;43.060;25.618;2022-09-12T20:12:52;18.30;73.70
68354;DHT22;55274;43.060;25.618;2022-09-12T20:15:18;18.30;72.60
68354;DHT22;55274;43.060;25.618;2022-09-12T20:17:44;18.50;72.30
68354;DHT22;55274;43.060;25.618;2022-09-12T20:20:10;18.50;72.70
68354;DHT22;55274;43.060;25.618;2022-09-12T20:22:36;18.50;73.40
68354;DHT22;55274;43.060;25.618;2022-09-12T20:25:03;18.50;73.80
68354;DHT22;55274;43.060;25.618;2022-09-12T20:27:29;18.50;74.10
68354;DHT22;55274;43.060;25.618;2022-09-12T20:29:55;18.50;74.20
68354;DHT22;55274;43.060;25.618;2022-09-12T20:32:23;18.50;73.90
68354;DHT22;55274;43.060;25.618;2022-09-12T20:34:49;18.50;73.80
68354;DHT22;55274;43.060;25.618;2022-09-12T20:37:16;18.60;72.30
68354;DHT22;55274;43.060;25.618;2022-09-12T20:39:42;18.60;72.30
68354;DHT22;55274;43.060;25.618;2022-09-12T20:42:08;18.60;72.10
68354;DHT22;55274;43.060;25.618;2022-09-12T20:44:33;18.60;72.20
68354;DHT22;55274;43.060;25.618;2022-09-12T20:46:59;18.70;71.40
68354;DHT22;55274;43.060;25.618;2022-09-12T20:49:25;18.70;71.10
68354;DHT22;55274;43.060;25.618;2022-09-12T20:51:51;18.80;69.70
68354;DHT22;55274;43.060;25.618;2022-09-12T20:54:16;18.90;69.30
68354;DHT22;55274;43.060;25.618;2022-09-12T20:56:42;18.90;69.70
68354;DHT22;55274;43.060;25.618;2022-09-12T20:59:11;18.90;69.70
68354;DHT22;55274;43.060;25.618;2022-09-12T21:01:37;18.90;69.00
68354;DHT22;55274;43.060;25.618;2022-09-12T21:04:03;18.90;68.70
68354;DHT22;55274;43.060;25.618;2022-09-12T21:06:30;19.00;68.30
68354;DHT22;55274;43.060;25.618;2022-09-12T21:08:56;19.00;68.10
68354;DHT22;55274;43.060;25.618;2022-09-12T21:11:24;19.00;68.60
68354;DHT22;55274;43.060;25.618;2022-09-12T21:13:51;19.00;68.20
68354;DHT22;55274;43.060;25.618;2022-09-12T21:16:19;19.00;68.10
68354;DHT22;55274;43.060;25.618;2022-09-12T21:18:46;19.10;68.10
68354;DHT22;55274;43.060;25.618;2022-09-12T21:21:13;19.10;68.30
68354;DHT22;55274;43.060;25.618;2022-09-12T21:23:40;19.00;70.00
68354;DHT22;55274;43.060;25.618;2022-09-12T21:26:06;19.00;70.60
68354;DHT22;55274;43.060;25.618;2022-09-12T21:28:33;18.90;69.60
68354;DHT22;55274;43.060;25.618;2022-09-12T21:30:59;18.90;69.70
68354;DHT22;55274;43.060;25.618;2022-09-12T21:33:25;18.90;70.00
68354;DHT22;55274;43.060;25.618;2022-09-12T21:35:50;18.90;69.60
68354;DHT22;55274;43.060;25.618;2022-09-12T21:38:17;18.90;69.10
68354;DHT22;55274;43.060;25.618;2022-09-12T21:40:44;18.90;69.40
68354;DHT22;55274;43.060;25.618;2022-09-12T21:43:10;18.90;70.00
68354;DHT22;55274;43.060;25.618;2022-09-12T21:45:36;18.80;71.70
68354;DHT22;55274;43.060;25.618;2022-09-12T21:48:02;18.70;72.70
68354;DHT22;55274;43.060;25.618;2022-09-12T21:50:28;18.70;73.00
68354;DHT22;55274;43.060;25.618;2022-09-12T21:52:54;18.60;73.50
68354;DHT22;55274;43.060;25.618;2022-09-12T21:55:20;18.60;73.30
68354;DHT22;55274;43.060;25.618;2022-09-12T21:57:55;18.60;73.50
68354;DHT22;55274;43.060;25.618;2022-09-12T22:00:21;18.50;73.80
68354;DHT22;55274;43.060;25.618;2022-09-12T22:02:47;18.50;73.60
68354;DHT22;55274;43.060;25.618;2022-09-12T22:05:13;18.50;74.10
68354;DHT22;55274;43.060;25.618;2022-09-12T22:07:39;18.40;73.90
68354;DHT22;55274;43.060;25.618;2022-09-12T22:10:05;18.40;75.40
68354;DHT22;55274;43.060;25.618;2022-09-12T22:12:32;18.30;75.50
68354;DHT22;55274;43.060;25.618;2022-09-12T22:14:58;18.30;75.40
68354;DHT22;55274;43.060;25.618;2022-09-12T22:17:24;18.30;75.00
68354;DHT22;55274;43.060;25.618;2022-09-12T22:19:50;18.30;74.80
68354;DHT22;55274;43.060;25.618;2022-09-12T22:22:16;18.30;74.40
68354;DHT22;55274;43.060;25.618;2022-09-12T22:25:00;18.40;73.70
68354;DHT22;55274;43.060;25.618;2022-09-12T22:27:26;18.40;73.30
68354;DHT22;55274;43.060;25.618;2022-09-12T22:29:52;18.50;74.30
68354;DHT22;55274;43.060;25.618;2022-09-12T22:32:19;18.50;74.50
68354;DHT22;55274;43.060;25.618;2022-09-12T22:34:45;18.50;73.50
68354;DHT22;55274;43.060;25.618;2022-09-12T22:37:12;18.50;73.20
68354;DHT22;55274;43.060;25.618;2022-09-12T22:39:38;18.50;73.40
68354;DHT22;55274;43.060;25.618;2022-09-12T22:42:04;18.50;73.20
68354;DHT22;55274;43.060;25.618;2022-09-12T22:44:30;18.60;72.50
68354;DHT22;55274;43.060;25.618;2022-09-12T22:46:57;18.60;72.10
68354;DHT22;55274;43.060;25.618;2022-09-12T22:49:22;18.50;72.30
68354;DHT22;55274;43.060;25.618;2022-09-12T22:51:48;18.50;73.80
68354;DHT22;55274;43.060;25.618;2022-09-12T22:54:14;18.40;75.50
68354;DHT22;55274;43.060;25.618;2022-09-12T22:56:40;18.30;75.60
68354;DHT22;55274;43.060;25.618;2022-09-12T22:59:06;18.20;76.30
68354;DHT22;55274;43.060;25.618;2022-09-12T23:01:33;18.20;75.90
68354;DHT22;55274;43.060;25.618;2022-09-12T23:04:00;18.10;75.50
68354;DHT22;55274;43.060;25.618;2022-09-12T23:06:26;18.10;74.90
68354;DHT22;55274;43.060;25.618;2022-09-12T23:08:52;18.10;74.90
68354;DHT22;55274;43.060;25.618;2022-09-12T23:11:19;18.10;75.50
68354;DHT22;55274;43.060;25.618;2022-09-12T23:13:47;18.00;75.50
68354;DHT22;55274;43.060;25.618;2022-09-12T23:16:32;18.00;76.00
68354;DHT22;55274;43.060;25.618;2022-09-12T23:18:58;17.90;76.40